createdAt,value
2018-12-17T00:00:15.652Z,101148.81
2018-12-17T00:02:44.230Z,101149.28
2018-12-17T00:05:11.849Z,101148.55
2018-12-17T00:07:39.513Z,101160.88
2018-12-17T00:10:07.244Z,101161.30
2018-12-17T00:12:34.901Z,101154.88
2018-12-17T00:15:04.284Z,101163.02
2018-12-17T00:17:32.756Z,101161.77
2018-12-17T00:20:01.665Z,101151.58
2018-12-17T00:22:31.771Z,101156.81
2018-12-17T00:25:00.485Z,101159.37
2018-12-17T00:27:28.919Z,101155.89
2018-12-17T00:29:57.344Z,101160.73
2018-12-17T00:32:24.986Z,101162.75
2018-12-17T00:34:53.390Z,101164.84
2018-12-17T00:37:21.029Z,101167.88
2018-12-17T00:39:49.592Z,101168.72
2018-12-17T00:42:17.214Z,101163.25
2018-12-17T00:44:44.883Z,101165.38
2018-12-17T00:47:13.447Z,101168.34
2018-12-17T00:49:41.085Z,101168.60
2018-12-17T00:52:08.723Z,101174.61
2018-12-17T00:54:36.381Z,101177.20
2018-12-17T00:57:04.090Z,101181.00
2018-12-17T00:59:31.761Z,101184.03
2018-12-17T01:01:59.393Z,101185.28
2018-12-17T01:04:27.032Z,101184.88
2018-12-17T01:06:54.663Z,101190.48
2018-12-17T01:09:22.290Z,101190.05
2018-12-17T01:11:49.919Z,101190.98
2018-12-17T01:14:17.557Z,101191.37
2018-12-17T01:16:45.197Z,101203.36
2018-12-17T01:19:12.829Z,101199.59
2018-12-17T01:21:40.742Z,101195.75
2018-12-17T01:24:08.533Z,101192.30
2018-12-17T01:26:37.239Z,101199.95
2018-12-17T01:29:04.870Z,101199.05
2018-12-17T01:31:33.711Z,101197.81
2018-12-17T01:34:01.907Z,101200.72
2018-12-17T01:36:29.540Z,101206.73
2018-12-17T01:38:57.167Z,101200.33
2018-12-17T01:41:24.921Z,101201.69
2018-12-17T01:43:52.593Z,101207.19
2018-12-17T01:46:20.224Z,101208.36
2018-12-17T01:48:47.853Z,101204.98
2018-12-17T01:51:15.492Z,101214.02
2018-12-17T01:53:43.117Z,101203.44
2018-12-17T01:56:10.741Z,101205.61
2018-12-17T01:58:38.379Z,101201.30
2018-12-17T02:01:06.014Z,101212.32
2018-12-17T02:03:40.212Z,101216.59
2018-12-17T02:06:07.843Z,101212.27
2018-12-17T02:08:35.837Z,101213.13
2018-12-17T02:11:03.729Z,101216.11
2018-12-17T02:13:31.995Z,101216.96
2018-12-17T02:15:59.710Z,101216.16
2018-12-17T02:18:27.347Z,101216.50
2018-12-17T02:20:54.997Z,101211.89
2018-12-17T02:23:22.627Z,101208.00
2018-12-17T02:25:51.094Z,101210.91
2018-12-17T02:28:18.724Z,101208.86
2018-12-17T02:30:46.362Z,101207.88
2018-12-17T02:33:13.992Z,101212.01
2018-12-17T02:35:41.631Z,101219.58
2018-12-17T02:38:09.270Z,101229.71
2018-12-17T02:40:36.915Z,101228.44
2018-12-17T02:43:04.522Z,101226.39
2018-12-17T02:45:32.484Z,101228.01
2018-12-17T02:48:01.772Z,101222.47
2018-12-17T02:50:29.403Z,101229.23
2018-12-17T02:52:57.032Z,101235.84
2018-12-17T02:55:25.591Z,101235.84
2018-12-17T02:57:53.221Z,101235.83
2018-12-17T03:00:20.840Z,101239.98
2018-12-17T03:02:48.473Z,101239.08
2018-12-17T03:05:16.150Z,101245.95
2018-12-17T03:07:43.792Z,101254.48
2018-12-17T03:10:11.502Z,101253.59
2018-12-17T03:12:39.924Z,101249.95
2018-12-17T03:15:07.705Z,101249.86
2018-12-17T03:17:35.348Z,101248.20
2018-12-17T03:20:03.056Z,101253.74
2018-12-17T03:22:31.321Z,101259.39
2018-12-17T03:24:58.942Z,101259.91
2018-12-17T03:27:27.527Z,101263.70
2018-12-17T03:29:55.150Z,101261.66
2018-12-17T03:32:22.786Z,101258.21
2018-12-17T03:34:50.430Z,101260.44
2018-12-17T03:37:18.821Z,101263.00
2018-12-17T03:39:46.458Z,101255.36
2018-12-17T03:42:14.089Z,101259.06
2018-12-17T03:44:41.721Z,101259.06
2018-12-17T03:47:09.359Z,101262.85
2018-12-17T03:49:36.998Z,101270.48
2018-12-17T03:52:04.655Z,101272.33
2018-12-17T03:54:33.165Z,101273.61
2018-12-17T03:57:01.551Z,101276.70
2018-12-17T03:59:31.149Z,101279.34
2018-12-17T04:01:58.788Z,101272.98
2018-12-17T04:04:27.230Z,101268.58
2018-12-17T04:06:55.676Z,101261.34
2018-12-17T04:09:24.121Z,101266.03
2018-12-17T04:11:52.568Z,101266.83
2018-12-17T04:14:20.243Z,101262.70
2018-12-17T04:16:47.891Z,101270.00
2018-12-17T04:19:16.533Z,101267.72
2018-12-17T04:21:44.171Z,101273.80
2018-12-17T04:24:11.829Z,101275.02
2018-12-17T04:26:39.464Z,101271.52
2018-12-17T04:29:07.328Z,101277.11
2018-12-17T04:31:35.512Z,101274.78
2018-12-17T04:34:03.143Z,101274.86
2018-12-17T04:36:31.683Z,101281.27
2018-12-17T04:38:59.301Z,101278.75
2018-12-17T04:41:27.007Z,101279.98
2018-12-17T04:43:55.554Z,101290.15
2018-12-17T04:46:23.221Z,101285.57
2018-12-17T04:48:50.901Z,101297.36
2018-12-17T04:51:18.623Z,101297.78
2018-12-17T04:53:47.210Z,101301.09
2018-12-17T04:56:15.767Z,101309.59
2018-12-17T04:58:44.437Z,101308.73
2018-12-17T05:01:12.061Z,101312.05
2018-12-17T05:03:39.689Z,101320.52
2018-12-17T05:06:07.390Z,101320.38
2018-12-17T05:08:35.004Z,101316.48
2018-12-17T05:11:03.466Z,101317.71
2018-12-17T05:13:31.977Z,101330.40
2018-12-17T05:15:59.610Z,101330.17
2018-12-17T05:18:28.098Z,101332.44
2018-12-17T05:20:56.677Z,101343.58
2018-12-17T05:23:25.212Z,101341.78
2018-12-17T05:25:53.667Z,101346.85
2018-12-17T05:28:22.203Z,101351.98
2018-12-17T05:30:49.835Z,101355.34
2018-12-17T05:33:18.177Z,101352.30
2018-12-17T05:35:45.804Z,101361.98
2018-12-17T05:38:14.342Z,101360.38
2018-12-17T05:40:41.963Z,101366.52
2018-12-17T05:43:10.375Z,101363.02
2018-12-17T05:45:39.012Z,101367.25
2018-12-17T05:48:07.512Z,101369.38
2018-12-17T05:50:35.319Z,101362.64
2018-12-17T05:53:02.965Z,101363.40
2018-12-17T05:55:31.883Z,101358.70
2018-12-17T05:58:00.460Z,101353.50
2018-12-17T06:00:28.189Z,101363.59
2018-12-17T06:02:55.828Z,101372.98
2018-12-17T06:05:23.452Z,101376.64
2018-12-17T06:07:51.078Z,101383.84
2018-12-17T06:10:19.608Z,101386.41
2018-12-17T06:12:47.234Z,101382.84
2018-12-17T06:15:15.765Z,101399.59
2018-12-17T06:17:44.212Z,101400.83
2018-12-17T06:20:12.563Z,101396.45
2018-12-17T06:22:41.005Z,101406.66
2018-12-17T06:25:09.432Z,101406.59
2018-12-17T06:27:38.638Z,101413.59
2018-12-17T06:30:06.430Z,101419.98
2018-12-17T06:32:34.047Z,101415.30
2018-12-17T06:35:02.446Z,101419.67
2018-12-17T06:37:31.995Z,101427.50
2018-12-17T06:39:59.635Z,101433.99
2018-12-17T06:42:28.217Z,101430.15
2018-12-17T06:44:55.839Z,101438.83
2018-12-17T06:47:24.271Z,101434.40
2018-12-17T06:49:51.903Z,101442.98
2018-12-17T06:52:20.332Z,101443.23
2018-12-17T06:54:54.599Z,101444.45
2018-12-17T06:57:17.686Z,101451.41
2018-12-17T06:59:46.160Z,101453.97
2018-12-17T07:02:15.092Z,101449.28
2018-12-17T07:04:42.713Z,101447.13
2018-12-17T07:07:11.266Z,101455.84
2018-12-17T07:09:38.892Z,101452.91
2018-12-17T07:12:07.549Z,101459.26
2018-12-17T07:14:36.636Z,101458.45
2018-12-17T07:17:05.473Z,101468.53
2018-12-17T07:19:34.028Z,101470.68
2018-12-17T07:22:02.568Z,101472.27
2018-12-17T07:24:30.468Z,101474.25
2018-12-17T07:26:58.086Z,101479.43
2018-12-17T07:29:26.627Z,101483.54
2018-12-17T07:31:55.190Z,101493.78
2018-12-17T07:34:23.728Z,101498.48
2018-12-17T07:36:52.360Z,101507.34
2018-12-17T07:39:21.266Z,101500.41
2018-12-17T07:41:49.858Z,101500.41
2018-12-17T07:44:18.259Z,101500.88
2018-12-17T07:46:45.885Z,101501.95
2018-12-17T07:49:14.377Z,101504.77
2018-12-17T07:51:42.004Z,101504.80
2018-12-17T07:54:10.550Z,101513.92
2018-12-17T07:56:39.081Z,101512.72
2018-12-17T07:59:07.509Z,101519.98
2018-12-17T08:01:36.078Z,101512.69
2018-12-17T08:04:04.568Z,101508.41
2018-12-17T08:06:32.876Z,101519.62
2018-12-17T08:09:00.529Z,101514.30
2018-12-17T08:11:29.010Z,101521.64
2018-12-17T08:13:57.587Z,101528.73
2018-12-17T08:16:26.176Z,101531.02
2018-12-17T08:18:55.602Z,101542.27
2018-12-17T08:21:24.043Z,101543.13
2018-12-17T08:23:51.674Z,101546.07
2018-12-17T08:26:19.301Z,101540.64
2018-12-17T08:28:47.857Z,101544.02
2018-12-17T08:31:15.476Z,101540.59
2018-12-17T08:33:44.048Z,101543.62
2018-12-17T08:36:11.706Z,101549.66
2018-12-17T08:38:40.163Z,101550.08
2018-12-17T08:41:07.786Z,101550.09
2018-12-17T08:43:35.406Z,101563.34
2018-12-17T08:46:03.025Z,101558.77
2018-12-17T08:48:31.702Z,101564.05
2018-12-17T08:51:00.552Z,101576.46
2018-12-17T08:53:28.994Z,101573.34
2018-12-17T08:55:57.451Z,101578.64
2018-12-17T08:58:25.077Z,101579.17
2018-12-17T09:00:53.651Z,101580.49
2018-12-17T09:03:21.301Z,101587.23
2018-12-17T09:05:49.737Z,101588.09
2018-12-17T09:08:17.398Z,101586.77
2018-12-17T09:10:45.012Z,101593.30
2018-12-17T09:13:13.595Z,101595.47
2018-12-17T09:15:41.907Z,101599.03
2018-12-17T09:18:09.598Z,101597.22
2018-12-17T09:20:37.999Z,101594.30
2018-12-17T09:23:05.690Z,101600.35
2018-12-17T09:25:34.115Z,101593.83
2018-12-17T09:28:01.774Z,101593.50
2018-12-17T09:30:29.456Z,101597.90
2018-12-17T09:32:57.990Z,101594.42
2018-12-17T09:35:25.621Z,101589.19
2018-12-17T09:37:54.244Z,101589.55
2018-12-17T09:40:21.903Z,101594.50
2018-12-17T09:42:50.442Z,101590.65
2018-12-17T09:45:18.970Z,101603.63
2018-12-17T09:47:46.622Z,101601.03
2018-12-17T09:50:14.396Z,101600.70
2018-12-17T09:52:42.089Z,101612.71
2018-12-17T09:55:09.881Z,101606.70
2018-12-17T09:57:37.963Z,101608.47
2018-12-17T10:00:07.172Z,101608.47
2018-12-17T10:02:34.807Z,101608.81
2018-12-17T10:05:03.169Z,101601.63
2018-12-17T10:07:31.581Z,101593.89
2018-12-17T10:09:59.203Z,101601.20
2018-12-17T10:12:26.830Z,101603.36
2018-12-17T10:14:54.451Z,101601.64
2018-12-17T10:17:22.081Z,101601.23
2018-12-17T10:19:49.712Z,101605.08
2018-12-17T10:22:18.164Z,101602.45
2018-12-17T10:24:45.819Z,101600.33
2018-12-17T10:27:13.443Z,101609.36
2018-12-17T10:29:41.065Z,101617.55
2018-12-17T10:32:08.690Z,101612.84
2018-12-17T10:34:36.309Z,101617.13
2018-12-17T10:37:03.950Z,101614.99
2018-12-17T10:39:31.696Z,101608.59
2018-12-17T10:41:59.381Z,101609.03
2018-12-17T10:44:28.164Z,101613.30
2018-12-17T10:46:56.023Z,101615.47
2018-12-17T10:49:23.645Z,101615.06
2018-12-17T10:51:51.281Z,101612.05
2018-12-17T10:54:18.880Z,101615.92
2018-12-17T10:56:46.516Z,101618.52
2018-12-17T10:59:14.119Z,101626.23
2018-12-17T11:01:48.197Z,101618.09
2018-12-17T11:04:17.917Z,101623.23
2018-12-17T11:06:45.845Z,101625.37
2018-12-17T11:09:13.475Z,101622.40
2018-12-17T11:11:41.088Z,101627.55
2018-12-17T11:14:09.051Z,101625.39
2018-12-17T11:16:36.772Z,101618.94
2018-12-17T11:19:04.471Z,101617.61
2018-12-17T11:21:33.127Z,101611.18
2018-12-17T11:24:01.577Z,101608.59
2018-12-17T11:26:30.716Z,101608.22
2018-12-17T11:28:58.500Z,101603.08
2018-12-17T11:31:26.987Z,101606.86
2018-12-17T11:33:54.716Z,101598.33
2018-12-17T11:36:23.340Z,101597.92
2018-12-17T11:38:50.997Z,101593.65
2018-12-17T11:41:24.472Z,101594.52
2018-12-17T11:43:52.890Z,101595.78
2018-12-17T11:46:20.487Z,101588.47
2018-12-17T11:48:49.191Z,101602.20
2018-12-17T11:51:16.821Z,101597.49
2018-12-17T11:53:45.359Z,101598.34
2018-12-17T11:56:12.989Z,101596.66
2018-12-17T11:58:40.594Z,101596.63
2018-12-17T12:01:10.265Z,101589.37
2018-12-17T12:03:38.590Z,101600.97
2018-12-17T12:06:06.216Z,101605.23
2018-12-17T12:08:34.807Z,101612.50
2018-12-17T12:11:03.443Z,101612.13
2018-12-17T12:13:32.749Z,101606.53
2018-12-17T12:16:01.752Z,101618.11
2018-12-17T12:18:30.457Z,101614.67
2018-12-17T12:20:58.109Z,101609.52
2018-12-17T12:23:25.782Z,101622.81
2018-12-17T12:25:54.208Z,101612.50
2018-12-17T12:28:21.840Z,101615.06
2018-12-17T12:30:50.444Z,101630.95
2018-12-17T12:33:18.126Z,101627.97
2018-12-17T12:35:45.748Z,101631.43
2018-12-17T12:38:14.169Z,101630.11
2018-12-17T12:40:41.799Z,101639.97
2018-12-17T12:43:09.459Z,101645.94
2018-12-17T12:45:38.003Z,101644.25
2018-12-17T12:48:05.623Z,101647.19
2018-12-17T12:50:34.188Z,101642.98
2018-12-17T12:53:02.661Z,101641.30
2018-12-17T12:55:30.597Z,101639.58
2018-12-17T12:58:03.576Z,101643.89
2018-12-17T13:00:28.377Z,101649.03
2018-12-17T13:02:56.913Z,101643.89
2018-12-17T13:05:25.384Z,101649.42
2018-12-17T13:07:53.005Z,101653.67
2018-12-17T13:10:20.635Z,101659.22
2018-12-17T13:12:48.240Z,101655.76
2018-12-17T13:15:15.941Z,101656.64
2018-12-17T13:17:43.557Z,101650.16
2018-12-17T13:20:11.967Z,101648.89
2018-12-17T13:22:39.614Z,101654.95
2018-12-17T13:25:09.369Z,101655.77
2018-12-17T13:27:37.186Z,101662.11
2018-12-17T13:30:06.671Z,101659.00
2018-12-17T13:32:34.313Z,101662.45
2018-12-17T13:35:02.627Z,101670.98
2018-12-17T13:37:30.639Z,101667.03
2018-12-17T13:39:58.276Z,101672.63
2018-12-17T13:42:25.900Z,101676.06
2018-12-17T13:44:53.605Z,101678.63
2018-12-17T13:47:21.229Z,101674.80
2018-12-17T13:49:48.887Z,101668.81
2018-12-17T13:52:23.165Z,101672.26
2018-12-17T13:54:51.588Z,101677.02
2018-12-17T13:57:19.210Z,101682.62
2018-12-17T13:59:47.766Z,101683.91
2018-12-17T14:02:16.008Z,101691.14
2018-12-17T14:04:44.490Z,101692.34
2018-12-17T14:07:12.256Z,101693.63
2018-12-17T14:09:41.857Z,101694.14
2018-12-17T14:12:09.472Z,101703.17
2018-12-17T14:14:38.046Z,101704.11
2018-12-17T14:17:11.302Z,101690.80
2018-12-17T14:19:40.910Z,101698.08
2018-12-17T14:22:09.463Z,101698.91
2018-12-17T14:24:37.164Z,101706.57
2018-12-17T14:27:04.799Z,101715.09
2018-12-17T14:29:32.760Z,101713.40
2018-12-17T14:32:01.611Z,101716.24
2018-12-17T14:34:29.240Z,101716.99
2018-12-17T14:36:57.683Z,101711.82
2018-12-17T14:39:26.124Z,101718.67
2018-12-17T14:41:53.739Z,101724.59
2018-12-17T14:44:26.853Z,101733.41
2018-12-17T14:46:58.395Z,101735.42
2018-12-17T14:49:26.312Z,101738.41
2018-12-17T14:51:53.934Z,101743.17
2018-12-17T14:54:22.399Z,101747.49
2018-12-17T14:56:50.028Z,101747.02
2018-12-17T14:59:17.678Z,101755.58
2018-12-17T15:04:26.976Z,101755.20
2018-12-17T15:06:54.621Z,101757.39
2018-12-17T15:09:22.490Z,101758.29
2018-12-17T15:11:50.117Z,101765.98
2018-12-17T15:14:18.662Z,101766.28
2018-12-17T15:16:46.291Z,101767.95
2018-12-17T15:19:14.722Z,101769.72
2018-12-17T15:21:42.361Z,101769.75
2018-12-17T15:24:10.027Z,101768.43
2018-12-17T15:26:37.657Z,101766.28
2018-12-17T15:29:05.370Z,101783.20
2018-12-17T15:31:33.016Z,101782.83
2018-12-17T15:34:01.662Z,101780.77
2018-12-17T15:36:30.567Z,101788.52
2018-12-17T15:38:58.193Z,101781.63
2018-12-17T15:41:26.654Z,101791.98
2018-12-17T15:43:55.168Z,101788.12
2018-12-17T15:46:22.836Z,101788.48
2018-12-17T15:48:50.459Z,101786.34
2018-12-17T15:51:18.921Z,101784.48
2018-12-17T15:53:46.548Z,101790.96
2018-12-17T15:56:15.021Z,101795.67
2018-12-17T15:58:43.370Z,101799.14
2018-12-17T16:01:11.040Z,101798.72
2018-12-17T16:03:39.478Z,101811.13
2018-12-17T16:06:07.135Z,101809.13
2018-12-17T16:08:34.798Z,101806.94
2018-12-17T16:11:03.373Z,101808.81
2018-12-17T16:13:31.936Z,101815.97
2018-12-17T16:16:00.524Z,101812.45
2018-12-17T16:18:29.016Z,101809.23
2018-12-17T16:20:56.643Z,101817.38
2018-12-17T16:23:25.326Z,101810.00
2018-12-17T16:25:53.732Z,101816.08
2018-12-17T16:28:21.397Z,101822.45
2018-12-17T16:30:49.016Z,101824.59
2018-12-17T16:33:17.605Z,101824.16
2018-12-17T16:35:46.005Z,101828.55
2018-12-17T16:38:14.389Z,101831.63
2018-12-17T16:40:42.020Z,101836.02
2018-12-17T16:43:09.695Z,101836.02
2018-12-17T16:45:38.126Z,101835.72
2018-12-17T16:48:06.542Z,101829.73
2018-12-17T16:50:34.200Z,101835.68
2018-12-17T16:53:02.145Z,101838.72
2018-12-17T16:55:31.703Z,101831.02
2018-12-17T16:57:59.322Z,101833.63
2018-12-17T17:00:27.823Z,101840.77
2018-12-17T17:02:55.447Z,101840.30
2018-12-17T17:05:23.211Z,101848.34
2018-12-17T17:07:51.782Z,101849.05
2018-12-17T17:10:19.433Z,101847.66
2018-12-17T17:12:47.072Z,101855.52
2018-12-17T17:15:14.743Z,101857.66
2018-12-17T17:17:43.306Z,101858.52
2018-12-17T17:20:10.931Z,101870.56
2018-12-17T17:22:38.562Z,101865.52
2018-12-17T17:25:06.322Z,101865.23
2018-12-17T17:27:33.947Z,101872.55
2018-12-17T17:30:01.577Z,101872.04
2018-12-17T17:32:29.347Z,101871.90
2018-12-17T17:34:56.982Z,101870.99
2018-12-17T17:37:24.590Z,101869.12
2018-12-17T17:39:52.218Z,101872.64
2018-12-17T17:42:19.858Z,101879.39
2018-12-17T17:44:47.483Z,101888.91
2018-12-17T17:47:15.126Z,101879.64
2018-12-17T17:49:42.755Z,101883.66
2018-12-17T17:52:11.385Z,101884.45
2018-12-17T17:54:39.081Z,101881.84
2018-12-17T17:57:06.800Z,101889.03
2018-12-17T17:59:34.422Z,101893.83
2018-12-17T18:02:02.767Z,101896.40
2018-12-17T18:04:30.422Z,101894.69
2018-12-17T18:06:58.986Z,101894.79
2018-12-17T18:09:26.592Z,101895.06
2018-12-17T18:11:54.215Z,101894.16
2018-12-17T18:14:21.824Z,101899.03
2018-12-17T18:16:49.451Z,101904.16
2018-12-17T18:19:17.087Z,101902.98
2018-12-17T18:21:44.712Z,101910.64
2018-12-17T18:24:12.341Z,101913.79
2018-12-17T18:26:39.964Z,101920.63
2018-12-17T18:29:07.593Z,101920.21
2018-12-17T18:31:35.306Z,101919.88
2018-12-17T18:34:02.960Z,101928.02
2018-12-17T18:36:31.287Z,101930.07
2018-12-17T18:38:59.686Z,101930.34
2018-12-17T18:41:27.485Z,101935.38
2018-12-17T18:43:55.926Z,101936.61
2018-12-17T18:46:23.547Z,101943.77
2018-12-17T18:48:51.182Z,101941.58
2018-12-17T18:51:18.801Z,101937.19
2018-12-17T18:53:46.425Z,101938.37
2018-12-17T18:56:14.050Z,101938.27
2018-12-17T18:58:41.774Z,101939.13
2018-12-17T19:01:10.217Z,101938.27
2018-12-17T19:03:37.838Z,101937.04
2018-12-17T19:06:05.501Z,101941.22
2018-12-17T19:08:34.031Z,101940.35
2018-12-17T19:11:01.707Z,101944.73
2018-12-17T19:13:29.334Z,101940.47
2018-12-17T19:15:56.955Z,101946.47
2018-12-17T19:18:25.554Z,101941.73
2018-12-17T19:20:53.202Z,101942.97
2018-12-17T19:23:20.830Z,101948.05
2018-12-17T19:25:48.477Z,101948.69
2018-12-17T19:28:16.132Z,101954.19
2018-12-17T19:30:44.637Z,101961.70
2018-12-17T19:33:12.287Z,101967.21
2018-12-17T19:35:39.910Z,101960.77
2018-12-17T19:38:07.542Z,101963.84
2018-12-17T19:40:35.177Z,101956.02
2018-12-17T19:43:02.807Z,101967.26
2018-12-17T19:45:30.445Z,101960.42
2018-12-17T19:47:58.086Z,101963.96
2018-12-17T19:50:25.715Z,101968.20
2018-12-17T19:52:54.164Z,101971.19
2018-12-17T19:55:22.518Z,101963.86
2018-12-17T19:57:50.145Z,101965.61
2018-12-17T20:00:17.774Z,101970.62
2018-12-17T20:02:47.152Z,101969.16
2018-12-17T20:05:15.090Z,101970.83
2018-12-17T20:07:42.723Z,101966.19
2018-12-17T20:10:12.486Z,101967.64
2018-12-17T20:12:41.125Z,101962.55
2018-12-17T20:15:09.736Z,101962.68
2018-12-17T20:17:37.366Z,101969.84
2018-12-17T20:20:06.567Z,101975.59
2018-12-17T20:22:34.192Z,101981.58
2018-12-17T20:25:02.857Z,101987.52
2018-12-17T20:27:30.476Z,101987.94
2018-12-17T20:29:58.103Z,101985.80
2018-12-17T20:32:25.776Z,101983.28
2018-12-17T20:34:54.330Z,101985.80
2018-12-17T20:37:21.972Z,101987.26
2018-12-17T20:39:49.810Z,101986.78
2018-12-17T20:42:17.438Z,101985.79
2018-12-17T20:44:45.074Z,101988.30
2018-12-17T20:47:13.540Z,101993.55
2018-12-17T20:49:41.172Z,101992.53
2018-12-17T20:52:09.781Z,101989.17
2018-12-17T20:54:37.421Z,101989.48
2018-12-17T20:57:05.850Z,101988.56
2018-12-17T20:59:34.393Z,101990.02
2018-12-17T21:02:02.638Z,101993.48
2018-12-17T21:04:30.552Z,101990.06
2018-12-17T21:06:58.989Z,101993.02
2018-12-17T21:09:27.340Z,101993.16
2018-12-17T21:11:54.974Z,101993.99
2018-12-17T21:14:23.901Z,101998.78
2018-12-17T21:16:51.748Z,101989.16
2018-12-17T21:19:19.372Z,101990.92
2018-12-17T21:21:47.073Z,101996.13
2018-12-17T21:24:14.720Z,101998.83
2018-12-17T21:26:42.955Z,101997.00
2018-12-17T21:29:10.657Z,101996.06
2018-12-17T21:31:39.086Z,101990.20
2018-12-17T21:34:06.743Z,101982.75
2018-12-17T21:36:35.152Z,101986.58
2018-12-17T21:39:02.906Z,101988.55
2018-12-17T21:41:30.527Z,101989.91
2018-12-17T21:43:59.028Z,101992.34
2018-12-17T21:46:26.666Z,101986.41
2018-12-17T21:48:54.291Z,101988.20
2018-12-17T21:51:21.932Z,101985.31
2018-12-17T21:53:49.572Z,101993.45
2018-12-17T21:56:17.987Z,101994.36
2018-12-17T21:58:45.607Z,102002.93
2018-12-17T22:01:13.233Z,101999.55
2018-12-17T22:03:40.893Z,102005.92
2018-12-17T22:06:08.516Z,102004.81
2018-12-17T22:08:37.063Z,102012.96
2018-12-17T22:11:04.672Z,102021.09
2018-12-17T22:13:33.304Z,102014.06
2018-12-17T22:16:01.730Z,102021.84
2018-12-17T22:18:29.392Z,102024.69
2018-12-17T22:20:57.022Z,102027.63
2018-12-17T22:23:24.671Z,102020.73
2018-12-17T22:25:52.317Z,102024.08
2018-12-17T22:28:19.937Z,102024.02
2018-12-17T22:30:47.568Z,102031.73
2018-12-17T22:33:19.737Z,102026.72
2018-12-17T22:35:45.813Z,102028.06
2018-12-17T22:38:13.441Z,102034.91
2018-12-17T22:40:41.064Z,102030.20
2018-12-17T22:43:08.687Z,102025.55
2018-12-17T22:45:36.305Z,102035.35
2018-12-17T22:48:03.999Z,102027.09
2018-12-17T22:50:31.655Z,102036.81
2018-12-17T22:52:59.359Z,102029.71
2018-12-17T22:55:27.037Z,102028.02
2018-12-17T22:57:55.649Z,102028.56
2018-12-17T23:00:23.848Z,102025.61
2018-12-17T23:02:51.725Z,102013.45
2018-12-17T23:05:19.387Z,102023.84
2018-12-17T23:07:47.953Z,102025.17
2018-12-17T23:10:27.429Z,102028.72
2018-12-17T23:13:07.019Z,102028.19
2018-12-17T23:15:46.668Z,102021.80
2018-12-17T23:18:14.366Z,102017.14
2018-12-17T23:20:42.879Z,102019.61
2018-12-17T23:23:10.965Z,102019.81
2018-12-17T23:25:38.629Z,102014.47
2018-12-17T23:28:08.992Z,102013.18
2018-12-17T23:30:36.739Z,102010.88
2018-12-17T23:33:04.386Z,102012.33
2018-12-17T23:35:32.686Z,102014.73
2018-12-17T23:38:00.490Z,102018.27
2018-12-17T23:40:28.101Z,102012.38
2018-12-17T23:42:55.838Z,102012.23
2018-12-17T23:45:23.478Z,102007.98
2018-12-17T23:47:51.980Z,102010.94
2018-12-17T23:50:19.643Z,102010.83
2018-12-17T23:52:47.261Z,102007.56
2018-12-17T23:55:14.919Z,102010.01
2018-12-17T23:57:43.463Z,102012.72
